sensor_id;sensor_type;location;lat;lon;timestamp;P1;durP1;ratioP1;P2;durP2;ratioP2
11931;SDS011;6025;51.368;6.788;2023-05-23T00:00:15;7.05;;;6.13;;
11931;SDS011;6025;51.368;6.788;2023-05-23T00:05:07;7.35;;;6.65;;
11931;SDS011;6025;51.368;6.788;2023-05-23T00:09:59;6.80;;;6.20;;
11931;SDS011;6025;51.368;6.788;2023-05-23T00:14:52;7.75;;;6.95;;
11931;SDS011;6025;51.368;6.788;2023-05-23T00:19:43;6.95;;;6.25;;
11931;SDS011;6025;51.368;6.788;2023-05-23T00:24:35;5.55;;;4.45;;
11931;SDS011;6025;51.368;6.788;2023-05-23T00:29:27;4.68;;;4.28;;
11931;SDS011;6025;51.368;6.788;2023-05-23T00:34:19;4.50;;;4.10;;
11931;SDS011;6025;51.368;6.788;2023-05-23T00:39:11;6.72;;;4.05;;
11931;SDS011;6025;51.368;6.788;2023-05-23T00:44:10;5.40;;;3.33;;
11931;SDS011;6025;51.368;6.788;2023-05-23T00:49:02;6.45;;;4.07;;
11931;SDS011;6025;51.368;6.788;2023-05-23T00:53:54;3.60;;;3.25;;
11931;SDS011;6025;51.368;6.788;2023-05-23T00:58:48;3.88;;;3.45;;
11931;SDS011;6025;51.368;6.788;2023-05-23T01:03:39;5.22;;;4.10;;
11931;SDS011;6025;51.368;6.788;2023-05-23T01:08:34;4.05;;;3.45;;
11931;SDS011;6025;51.368;6.788;2023-05-23T01:13:28;5.13;;;3.88;;
11931;SDS011;6025;51.368;6.788;2023-05-23T01:18:25;4.03;;;3.63;;
11931;SDS011;6025;51.368;6.788;2023-05-23T01:23:26;4.50;;;3.65;;
11931;SDS011;6025;51.368;6.788;2023-05-23T01:28:25;5.72;;;3.72;;
11931;SDS011;6025;51.368;6.788;2023-05-23T01:33:18;4.60;;;3.40;;
11931;SDS011;6025;51.368;6.788;2023-05-23T01:38:10;3.72;;;3.42;;
11931;SDS011;6025;51.368;6.788;2023-05-23T01:43:02;3.92;;;3.17;;
11931;SDS011;6025;51.368;6.788;2023-05-23T01:47:55;4.72;;;3.58;;
11931;SDS011;6025;51.368;6.788;2023-05-23T01:52:47;3.97;;;3.67;;
11931;SDS011;6025;51.368;6.788;2023-05-23T01:57:39;4.68;;;3.65;;
11931;SDS011;6025;51.368;6.788;2023-05-23T02:02:31;4.63;;;4.10;;
11931;SDS011;6025;51.368;6.788;2023-05-23T02:07:24;4.47;;;4.00;;
11931;SDS011;6025;51.368;6.788;2023-05-23T02:12:15;6.90;;;4.43;;
11931;SDS011;6025;51.368;6.788;2023-05-23T02:17:07;4.55;;;4.05;;
11931;SDS011;6025;51.368;6.788;2023-05-23T02:21:59;7.10;;;4.30;;
11931;SDS011;6025;51.368;6.788;2023-05-23T02:26:52;7.28;;;4.35;;
11931;SDS011;6025;51.368;6.788;2023-05-23T02:31:44;9.00;;;4.50;;
11931;SDS011;6025;51.368;6.788;2023-05-23T02:36:44;4.32;;;3.88;;
11931;SDS011;6025;51.368;6.788;2023-05-23T02:41:36;5.82;;;4.15;;
11931;SDS011;6025;51.368;6.788;2023-05-23T02:46:29;6.60;;;3.88;;
11931;SDS011;6025;51.368;6.788;2023-05-23T02:51:21;6.30;;;4.07;;
11931;SDS011;6025;51.368;6.788;2023-05-23T02:56:12;6.45;;;4.32;;
11931;SDS011;6025;51.368;6.788;2023-05-23T03:01:05;7.25;;;4.80;;
11931;SDS011;6025;51.368;6.788;2023-05-23T03:05:58;9.52;;;5.43;;
11931;SDS011;6025;51.368;6.788;2023-05-23T03:10:50;7.38;;;5.43;;
11931;SDS011;6025;51.368;6.788;2023-05-23T03:15:41;8.02;;;5.25;;
11931;SDS011;6025;51.368;6.788;2023-05-23T03:20:33;9.00;;;5.47;;
11931;SDS011;6025;51.368;6.788;2023-05-23T03:25:26;8.10;;;4.40;;
11931;SDS011;6025;51.368;6.788;2023-05-23T03:30:19;7.15;;;4.50;;
11931;SDS011;6025;51.368;6.788;2023-05-23T03:35:11;5.40;;;3.97;;
11931;SDS011;6025;51.368;6.788;2023-05-23T03:40:02;7.45;;;4.20;;
11931;SDS011;6025;51.368;6.788;2023-05-23T03:44:57;5.88;;;3.90;;
11931;SDS011;6025;51.368;6.788;2023-05-23T03:49:48;5.38;;;3.97;;
11931;SDS011;6025;51.368;6.788;2023-05-23T03:54:40;7.93;;;4.20;;
11931;SDS011;6025;51.368;6.788;2023-05-23T03:59:32;5.45;;;3.83;;
11931;SDS011;6025;51.368;6.788;2023-05-23T04:04:25;6.93;;;4.40;;
11931;SDS011;6025;51.368;6.788;2023-05-23T04:09:16;7.80;;;4.57;;
11931;SDS011;6025;51.368;6.788;2023-05-23T04:14:08;10.20;;;4.80;;
11931;SDS011;6025;51.368;6.788;2023-05-23T04:19:00;7.28;;;4.70;;
11931;SDS011;6025;51.368;6.788;2023-05-23T04:23:54;9.15;;;4.20;;
11931;SDS011;6025;51.368;6.788;2023-05-23T04:28:46;8.25;;;5.22;;
11931;SDS011;6025;51.368;6.788;2023-05-23T04:33:37;7.68;;;5.57;;
11931;SDS011;6025;51.368;6.788;2023-05-23T04:38:29;8.85;;;5.53;;
11931;SDS011;6025;51.368;6.788;2023-05-23T04:43:23;10.65;;;5.80;;
11931;SDS011;6025;51.368;6.788;2023-05-23T04:48:16;8.85;;;5.72;;
11931;SDS011;6025;51.368;6.788;2023-05-23T04:53:10;9.68;;;6.18;;
11931;SDS011;6025;51.368;6.788;2023-05-23T04:58:03;8.57;;;5.90;;
11931;SDS011;6025;51.368;6.788;2023-05-23T05:02:56;7.90;;;6.10;;
11931;SDS011;6025;51.368;6.788;2023-05-23T05:07:47;11.07;;;6.40;;
11931;SDS011;6025;51.368;6.788;2023-05-23T05:12:42;9.85;;;6.65;;
11931;SDS011;6025;51.368;6.788;2023-05-23T05:17:34;11.57;;;6.47;;
11931;SDS011;6025;51.368;6.788;2023-05-23T05:22:29;13.18;;;6.50;;
11931;SDS011;6025;51.368;6.788;2023-05-23T05:27:22;11.20;;;6.68;;
11931;SDS011;6025;51.368;6.788;2023-05-23T05:32:14;10.30;;;7.10;;
11931;SDS011;6025;51.368;6.788;2023-05-23T05:37:05;8.25;;;6.05;;
11931;SDS011;6025;51.368;6.788;2023-05-23T05:41:58;10.73;;;7.05;;
11931;SDS011;6025;51.368;6.788;2023-05-23T05:46:52;9.98;;;6.88;;
11931;SDS011;6025;51.368;6.788;2023-05-23T05:51:44;11.57;;;6.93;;
11931;SDS011;6025;51.368;6.788;2023-05-23T05:56:35;10.15;;;6.70;;
11931;SDS011;6025;51.368;6.788;2023-05-23T06:01:31;9.82;;;6.47;;
11931;SDS011;6025;51.368;6.788;2023-05-23T06:06:23;9.07;;;6.32;;
11931;SDS011;6025;51.368;6.788;2023-05-23T06:11:15;12.88;;;7.13;;
11931;SDS011;6025;51.368;6.788;2023-05-23T06:16:06;9.63;;;5.68;;
11931;SDS011;6025;51.368;6.788;2023-05-23T06:20:59;10.48;;;5.80;;
11931;SDS011;6025;51.368;6.788;2023-05-23T06:25:51;8.63;;;5.80;;
11931;SDS011;6025;51.368;6.788;2023-05-23T06:30:43;12.32;;;5.85;;
11931;SDS011;6025;51.368;6.788;2023-05-23T06:35:34;11.07;;;6.40;;
11931;SDS011;6025;51.368;6.788;2023-05-23T06:40:27;8.23;;;6.10;;
11931;SDS011;6025;51.368;6.788;2023-05-23T06:45:18;12.07;;;6.35;;
11931;SDS011;6025;51.368;6.788;2023-05-23T06:50:10;14.20;;;6.68;;
11931;SDS011;6025;51.368;6.788;2023-05-23T06:55:02;12.50;;;7.10;;
11931;SDS011;6025;51.368;6.788;2023-05-23T06:59:55;11.20;;;6.38;;
11931;SDS011;6025;51.368;6.788;2023-05-23T07:04:47;9.65;;;6.65;;
11931;SDS011;6025;51.368;6.788;2023-05-23T07:09:38;10.18;;;6.47;;
11931;SDS011;6025;51.368;6.788;2023-05-23T07:14:30;11.48;;;5.78;;
11931;SDS011;6025;51.368;6.788;2023-05-23T07:19:22;14.60;;;5.70;;
11931;SDS011;6025;51.368;6.788;2023-05-23T07:24:14;8.23;;;5.63;;
11931;SDS011;6025;51.368;6.788;2023-05-23T07:29:06;9.50;;;5.30;;
11931;SDS011;6025;51.368;6.788;2023-05-23T07:33:57;10.73;;;5.35;;
11931;SDS011;6025;51.368;6.788;2023-05-23T07:38:50;11.45;;;5.57;;
11931;SDS011;6025;51.368;6.788;2023-05-23T07:43:42;12.45;;;6.18;;
11931;SDS011;6025;51.368;6.788;2023-05-23T07:48:33;11.20;;;6.38;;
11931;SDS011;6025;51.368;6.788;2023-05-23T07:53:25;12.65;;;5.82;;
11931;SDS011;6025;51.368;6.788;2023-05-23T07:58:18;12.00;;;6.28;;
11931;SDS011;6025;51.368;6.788;2023-05-23T08:03:09;13.25;;;7.25;;
11931;SDS011;6025;51.368;6.788;2023-05-23T08:08:08;12.45;;;5.97;;
11931;SDS011;6025;51.368;6.788;2023-05-23T08:13:00;10.18;;;5.82;;
11931;SDS011;6025;51.368;6.788;2023-05-23T08:17:57;12.82;;;6.13;;
11931;SDS011;6025;51.368;6.788;2023-05-23T08:22:49;13.95;;;5.90;;
11931;SDS011;6025;51.368;6.788;2023-05-23T08:27:41;12.82;;;6.00;;
11931;SDS011;6025;51.368;6.788;2023-05-23T08:32:33;16.63;;;7.25;;
11931;SDS011;6025;51.368;6.788;2023-05-23T08:37:26;12.57;;;6.30;;
11931;SDS011;6025;51.368;6.788;2023-05-23T08:42:17;15.73;;;7.00;;
11931;SDS011;6025;51.368;6.788;2023-05-23T08:47:09;11.70;;;6.45;;
11931;SDS011;6025;51.368;6.788;2023-05-23T08:52:01;17.50;;;6.78;;
11931;SDS011;6025;51.368;6.788;2023-05-23T08:56:55;14.00;;;7.78;;
11931;SDS011;6025;51.368;6.788;2023-05-23T09:01:46;15.27;;;7.97;;
11931;SDS011;6025;51.368;6.788;2023-05-23T09:06:38;15.90;;;7.40;;
11931;SDS011;6025;51.368;6.788;2023-05-23T09:11:32;21.92;;;10.35;;
11931;SDS011;6025;51.368;6.788;2023-05-23T09:16:32;19.48;;;8.15;;
11931;SDS011;6025;51.368;6.788;2023-05-23T09:21:24;15.65;;;7.20;;
11931;SDS011;6025;51.368;6.788;2023-05-23T09:26:15;13.77;;;6.35;;
11931;SDS011;6025;51.368;6.788;2023-05-23T09:31:07;16.10;;;6.63;;
11931;SDS011;6025;51.368;6.788;2023-05-23T09:36:00;13.18;;;6.13;;
11931;SDS011;6025;51.368;6.788;2023-05-23T09:40:54;11.70;;;6.43;;
11931;SDS011;6025;51.368;6.788;2023-05-23T09:45:47;12.63;;;6.65;;
11931;SDS011;6025;51.368;6.788;2023-05-23T09:50:38;13.18;;;6.72;;
11931;SDS011;6025;51.368;6.788;2023-05-23T09:55:31;11.75;;;5.97;;
11931;SDS011;6025;51.368;6.788;2023-05-23T10:00:23;12.32;;;6.38;;
11931;SDS011;6025;51.368;6.788;2023-05-23T10:05:17;13.63;;;5.93;;
11931;SDS011;6025;51.368;6.788;2023-05-23T10:10:14;14.57;;;6.90;;
11931;SDS011;6025;51.368;6.788;2023-05-23T10:15:08;13.05;;;5.65;;
11931;SDS011;6025;51.368;6.788;2023-05-23T10:20:00;8.52;;;4.95;;
11931;SDS011;6025;51.368;6.788;2023-05-23T10:24:57;8.48;;;4.80;;
11931;SDS011;6025;51.368;6.788;2023-05-23T10:29:48;9.43;;;4.47;;
11931;SDS011;6025;51.368;6.788;2023-05-23T10:34:43;8.82;;;4.78;;
11931;SDS011;6025;51.368;6.788;2023-05-23T10:39:53;10.10;;;4.32;;
11931;SDS011;6025;51.368;6.788;2023-05-23T10:44:47;9.43;;;4.85;;
11931;SDS011;6025;51.368;6.788;2023-05-23T10:49:39;8.57;;;4.38;;
11931;SDS011;6025;51.368;6.788;2023-05-23T10:54:33;9.10;;;4.68;;
11931;SDS011;6025;51.368;6.788;2023-05-23T10:59:25;8.73;;;4.97;;
11931;SDS011;6025;51.368;6.788;2023-05-23T11:04:23;12.55;;;5.55;;
11931;SDS011;6025;51.368;6.788;2023-05-23T11:09:17;12.38;;;5.70;;
11931;SDS011;6025;51.368;6.788;2023-05-23T11:14:09;11.05;;;5.15;;
11931;SDS011;6025;51.368;6.788;2023-05-23T11:24:18;9.95;;;4.35;;
11931;SDS011;6025;51.368;6.788;2023-05-23T11:29:09;9.57;;;4.22;;
11931;SDS011;6025;51.368;6.788;2023-05-23T11:34:01;8.80;;;3.65;;
11931;SDS011;6025;51.368;6.788;2023-05-23T11:39:00;10.10;;;3.88;;
11931;SDS011;6025;51.368;6.788;2023-05-23T11:43:54;9.07;;;3.90;;
11931;SDS011;6025;51.368;6.788;2023-05-23T11:48:45;9.82;;;3.75;;
11931;SDS011;6025;51.368;6.788;2023-05-23T11:53:37;11.15;;;3.60;;
11931;SDS011;6025;51.368;6.788;2023-05-23T11:58:29;14.85;;;3.70;;
11931;SDS011;6025;51.368;6.788;2023-05-23T12:03:23;12.23;;;3.67;;
11931;SDS011;6025;51.368;6.788;2023-05-23T12:08:15;12.43;;;3.30;;
11931;SDS011;6025;51.368;6.788;2023-05-23T12:13:06;15.82;;;4.13;;
11931;SDS011;6025;51.368;6.788;2023-05-23T12:17:58;14.18;;;4.20;;
11931;SDS011;6025;51.368;6.788;2023-05-23T12:22:52;9.55;;;3.22;;
11931;SDS011;6025;51.368;6.788;2023-05-23T12:27:44;10.38;;;3.70;;
11931;SDS011;6025;51.368;6.788;2023-05-23T12:32:38;9.77;;;3.10;;
11931;SDS011;6025;51.368;6.788;2023-05-23T12:37:31;13.10;;;4.03;;
11931;SDS011;6025;51.368;6.788;2023-05-23T12:42:24;10.75;;;3.88;;
11931;SDS011;6025;51.368;6.788;2023-05-23T12:47:16;8.77;;;3.63;;
11931;SDS011;6025;51.368;6.788;2023-05-23T12:52:09;14.73;;;4.20;;
11931;SDS011;6025;51.368;6.788;2023-05-23T12:57:01;8.65;;;3.42;;
11931;SDS011;6025;51.368;6.788;2023-05-23T13:01:54;11.95;;;4.15;;
11931;SDS011;6025;51.368;6.788;2023-05-23T13:06:45;9.52;;;4.20;;
11931;SDS011;6025;51.368;6.788;2023-05-23T13:11:37;8.45;;;3.78;;
11931;SDS011;6025;51.368;6.788;2023-05-23T13:16:28;9.02;;;3.30;;
11931;SDS011;6025;51.368;6.788;2023-05-23T13:21:21;8.40;;;3.92;;
11931;SDS011;6025;51.368;6.788;2023-05-23T13:26:13;8.20;;;3.97;;
11931;SDS011;6025;51.368;6.788;2023-05-23T13:31:05;10.63;;;4.28;;
11931;SDS011;6025;51.368;6.788;2023-05-23T13:35:56;10.15;;;3.35;;
11931;SDS011;6025;51.368;6.788;2023-05-23T13:40:49;10.82;;;3.47;;
11931;SDS011;6025;51.368;6.788;2023-05-23T13:45:41;14.48;;;3.50;;
11931;SDS011;6025;51.368;6.788;2023-05-23T13:50:33;11.35;;;3.90;;
11931;SDS011;6025;51.368;6.788;2023-05-23T13:55:25;9.75;;;3.50;;
11931;SDS011;6025;51.368;6.788;2023-05-23T14:00:18;7.57;;;3.00;;
11931;SDS011;6025;51.368;6.788;2023-05-23T14:05:10;6.72;;;2.65;;
11931;SDS011;6025;51.368;6.788;2023-05-23T14:10:01;9.15;;;3.33;;
11931;SDS011;6025;51.368;6.788;2023-05-23T14:14:54;9.65;;;3.47;;
11931;SDS011;6025;51.368;6.788;2023-05-23T14:19:46;8.88;;;3.25;;
11931;SDS011;6025;51.368;6.788;2023-05-23T14:24:41;11.52;;;3.58;;
11931;SDS011;6025;51.368;6.788;2023-05-23T14:29:33;10.82;;;3.03;;
11931;SDS011;6025;51.368;6.788;2023-05-23T14:34:24;8.20;;;3.65;;
11931;SDS011;6025;51.368;6.788;2023-05-23T14:39:17;7.93;;;3.67;;
11931;SDS011;6025;51.368;6.788;2023-05-23T14:44:09;9.20;;;3.47;;
11931;SDS011;6025;51.368;6.788;2023-05-23T14:49:00;8.98;;;3.78;;
11931;SDS011;6025;51.368;6.788;2023-05-23T14:53:52;10.40;;;3.50;;
11931;SDS011;6025;51.368;6.788;2023-05-23T14:58:45;10.40;;;3.03;;
11931;SDS011;6025;51.368;6.788;2023-05-23T15:03:36;11.18;;;3.33;;
11931;SDS011;6025;51.368;6.788;2023-05-23T15:08:28;11.13;;;4.00;;
11931;SDS011;6025;51.368;6.788;2023-05-23T15:13:20;6.93;;;2.97;;
11931;SDS011;6025;51.368;6.788;2023-05-23T15:18:13;10.93;;;3.58;;
11931;SDS011;6025;51.368;6.788;2023-05-23T15:23:08;8.98;;;2.92;;
11931;SDS011;6025;51.368;6.788;2023-05-23T15:28:00;9.75;;;3.38;;
11931;SDS011;6025;51.368;6.788;2023-05-23T15:32:51;8.95;;;2.95;;
11931;SDS011;6025;51.368;6.788;2023-05-23T15:37:44;8.52;;;2.95;;
11931;SDS011;6025;51.368;6.788;2023-05-23T15:42:36;9.13;;;3.45;;
11931;SDS011;6025;51.368;6.788;2023-05-23T15:47:27;8.07;;;2.70;;
11931;SDS011;6025;51.368;6.788;2023-05-23T15:52:19;8.15;;;2.88;;
11931;SDS011;6025;51.368;6.788;2023-05-23T15:57:12;9.10;;;2.80;;
11931;SDS011;6025;51.368;6.788;2023-05-23T16:02:03;10.50;;;2.60;;
11931;SDS011;6025;51.368;6.788;2023-05-23T16:06:55;7.70;;;2.88;;
11931;SDS011;6025;51.368;6.788;2023-05-23T16:11:47;9.63;;;2.97;;
11931;SDS011;6025;51.368;6.788;2023-05-23T16:16:40;7.60;;;2.83;;
11931;SDS011;6025;51.368;6.788;2023-05-23T16:21:31;8.43;;;2.80;;
11931;SDS011;6025;51.368;6.788;2023-05-23T16:26:23;6.30;;;2.65;;
11931;SDS011;6025;51.368;6.788;2023-05-23T16:31:15;10.43;;;2.85;;
11931;SDS011;6025;51.368;6.788;2023-05-23T16:36:08;5.18;;;2.30;;
11931;SDS011;6025;51.368;6.788;2023-05-23T16:41:00;7.07;;;3.05;;
11931;SDS011;6025;51.368;6.788;2023-05-23T16:45:52;6.72;;;2.50;;
11931;SDS011;6025;51.368;6.788;2023-05-23T16:50:43;10.95;;;3.72;;
11931;SDS011;6025;51.368;6.788;2023-05-23T16:55:39;10.05;;;2.85;;
11931;SDS011;6025;51.368;6.788;2023-05-23T17:00:31;9.48;;;3.03;;
11931;SDS011;6025;51.368;6.788;2023-05-23T17:05:22;10.77;;;3.45;;
11931;SDS011;6025;51.368;6.788;2023-05-23T17:10:14;11.35;;;3.22;;
11931;SDS011;6025;51.368;6.788;2023-05-23T17:15:08;7.47;;;2.92;;
11931;SDS011;6025;51.368;6.788;2023-05-23T17:20:00;7.68;;;2.65;;
11931;SDS011;6025;51.368;6.788;2023-05-23T17:24:52;12.27;;;2.75;;
11931;SDS011;6025;51.368;6.788;2023-05-23T17:29:44;8.65;;;2.72;;
11931;SDS011;6025;51.368;6.788;2023-05-23T17:34:37;9.13;;;2.72;;
11931;SDS011;6025;51.368;6.788;2023-05-23T17:39:30;6.40;;;2.95;;
11931;SDS011;6025;51.368;6.788;2023-05-23T17:44:28;8.80;;;3.10;;
11931;SDS011;6025;51.368;6.788;2023-05-23T17:49:24;6.20;;;2.72;;
11931;SDS011;6025;51.368;6.788;2023-05-23T17:54:17;8.30;;;2.75;;
11931;SDS011;6025;51.368;6.788;2023-05-23T17:59:08;12.38;;;3.05;;
11931;SDS011;6025;51.368;6.788;2023-05-23T18:04:00;9.10;;;2.80;;
11931;SDS011;6025;51.368;6.788;2023-05-23T18:08:52;10.13;;;3.08;;
11931;SDS011;6025;51.368;6.788;2023-05-23T18:13:45;7.70;;;2.60;;
11931;SDS011;6025;51.368;6.788;2023-05-23T18:18:36;6.43;;;2.63;;
11931;SDS011;6025;51.368;6.788;2023-05-23T18:23:28;8.52;;;3.22;;
11931;SDS011;6025;51.368;6.788;2023-05-23T18:28:20;8.40;;;2.58;;
11931;SDS011;6025;51.368;6.788;2023-05-23T18:33:12;11.43;;;3.08;;
11931;SDS011;6025;51.368;6.788;2023-05-23T18:38:06;9.73;;;2.67;;
11931;SDS011;6025;51.368;6.788;2023-05-23T18:42:57;7.75;;;2.80;;
11931;SDS011;6025;51.368;6.788;2023-05-23T18:47:49;9.68;;;2.30;;
11931;SDS011;6025;51.368;6.788;2023-05-23T18:52:42;9.00;;;2.63;;
11931;SDS011;6025;51.368;6.788;2023-05-23T18:57:34;8.23;;;2.70;;
11931;SDS011;6025;51.368;6.788;2023-05-23T19:02:28;9.50;;;2.80;;
11931;SDS011;6025;51.368;6.788;2023-05-23T19:07:19;7.90;;;3.08;;
11931;SDS011;6025;51.368;6.788;2023-05-23T19:12:22;11.40;;;2.75;;
11931;SDS011;6025;51.368;6.788;2023-05-23T19:17:14;11.15;;;3.40;;
11931;SDS011;6025;51.368;6.788;2023-05-23T19:22:06;11.35;;;2.75;;
11931;SDS011;6025;51.368;6.788;2023-05-23T19:26:57;9.52;;;2.47;;
11931;SDS011;6025;51.368;6.788;2023-05-23T19:31:50;9.35;;;2.40;;
11931;SDS011;6025;51.368;6.788;2023-05-23T19:36:43;9.73;;;2.60;;
11931;SDS011;6025;51.368;6.788;2023-05-23T19:41:35;9.15;;;2.50;;
11931;SDS011;6025;51.368;6.788;2023-05-23T19:46:27;8.30;;;2.28;;
11931;SDS011;6025;51.368;6.788;2023-05-23T19:51:20;9.50;;;2.80;;
11931;SDS011;6025;51.368;6.788;2023-05-23T19:56:11;11.90;;;2.80;;
11931;SDS011;6025;51.368;6.788;2023-05-23T20:01:03;10.40;;;2.47;;
11931;SDS011;6025;51.368;6.788;2023-05-23T20:05:54;7.18;;;2.70;;
11931;SDS011;6025;51.368;6.788;2023-05-23T20:10:48;8.35;;;2.63;;
11931;SDS011;6025;51.368;6.788;2023-05-23T20:15:39;9.95;;;2.65;;
11931;SDS011;6025;51.368;6.788;2023-05-23T20:20:31;9.57;;;2.78;;
11931;SDS011;6025;51.368;6.788;2023-05-23T20:25:22;12.48;;;2.75;;
11931;SDS011;6025;51.368;6.788;2023-05-23T20:30:18;7.10;;;2.20;;
11931;SDS011;6025;51.368;6.788;2023-05-23T20:35:10;6.22;;;2.20;;
11931;SDS011;6025;51.368;6.788;2023-05-23T20:40:01;9.95;;;2.50;;
11931;SDS011;6025;51.368;6.788;2023-05-23T20:44:56;8.98;;;2.40;;
11931;SDS011;6025;51.368;6.788;2023-05-23T20:49:52;9.25;;;2.30;;
11931;SDS011;6025;51.368;6.788;2023-05-23T20:54:45;8.68;;;2.30;;
11931;SDS011;6025;51.368;6.788;2023-05-23T20:59:37;7.03;;;2.28;;
11931;SDS011;6025;51.368;6.788;2023-05-23T21:04:28;11.15;;;2.50;;
11931;SDS011;6025;51.368;6.788;2023-05-23T21:09:21;10.40;;;2.92;;
11931;SDS011;6025;51.368;6.788;2023-05-23T21:14:12;7.80;;;2.20;;
11931;SDS011;6025;51.368;6.788;2023-05-23T21:19:04;9.23;;;2.15;;
11931;SDS011;6025;51.368;6.788;2023-05-23T21:23:56;8.43;;;2.53;;
11931;SDS011;6025;51.368;6.788;2023-05-23T21:28:49;10.90;;;2.50;;
11931;SDS011;6025;51.368;6.788;2023-05-23T21:33:40;10.50;;;2.08;;
11931;SDS011;6025;51.368;6.788;2023-05-23T21:38:32;5.90;;;1.88;;
11931;SDS011;6025;51.368;6.788;2023-05-23T21:43:26;10.00;;;2.35;;
11931;SDS011;6025;51.368;6.788;2023-05-23T21:48:19;8.15;;;2.35;;
11931;SDS011;6025;51.368;6.788;2023-05-23T21:53:10;9.60;;;2.25;;
11931;SDS011;6025;51.368;6.788;2023-05-23T21:58:02;8.38;;;2.10;;
11931;SDS011;6025;51.368;6.788;2023-05-23T22:02:53;9.55;;;2.40;;
11931;SDS011;6025;51.368;6.788;2023-05-23T22:07:46;11.13;;;2.25;;
11931;SDS011;6025;51.368;6.788;2023-05-23T22:12:38;7.30;;;2.42;;
11931;SDS011;6025;51.368;6.788;2023-05-23T22:17:30;8.65;;;2.15;;
11931;SDS011;6025;51.368;6.788;2023-05-23T22:22:23;7.28;;;2.38;;
11931;SDS011;6025;51.368;6.788;2023-05-23T22:27:15;8.73;;;2.15;;
11931;SDS011;6025;51.368;6.788;2023-05-23T22:32:07;8.77;;;2.20;;
11931;SDS011;6025;51.368;6.788;2023-05-23T22:36:58;10.00;;;2.25;;
11931;SDS011;6025;51.368;6.788;2023-05-23T22:41:50;6.70;;;1.95;;
11931;SDS011;6025;51.368;6.788;2023-05-23T22:46:43;6.20;;;2.00;;
11931;SDS011;6025;51.368;6.788;2023-05-23T22:51:35;9.07;;;2.30;;
11931;SDS011;6025;51.368;6.788;2023-05-23T22:56:26;14.38;;;2.60;;
11931;SDS011;6025;51.368;6.788;2023-05-23T23:01:18;10.77;;;2.95;;
11931;SDS011;6025;51.368;6.788;2023-05-23T23:06:11;10.45;;;2.20;;
11931;SDS011;6025;51.368;6.788;2023-05-23T23:11:03;10.18;;;2.38;;
11931;SDS011;6025;51.368;6.788;2023-05-23T23:15:54;8.85;;;2.20;;
11931;SDS011;6025;51.368;6.788;2023-05-23T23:20:47;7.13;;;2.17;;
11931;SDS011;6025;51.368;6.788;2023-05-23T23:25:40;8.13;;;2.60;;
11931;SDS011;6025;51.368;6.788;2023-05-23T23:30:32;11.48;;;2.60;;
11931;SDS011;6025;51.368;6.788;2023-05-23T23:35:23;6.47;;;1.95;;
11931;SDS011;6025;51.368;6.788;2023-05-23T23:40:15;7.20;;;2.25;;
11931;SDS011;6025;51.368;6.788;2023-05-23T23:45:08;9.15;;;2.40;;
11931;SDS011;6025;51.368;6.788;2023-05-23T23:50:00;10.27;;;2.63;;
11931;SDS011;6025;51.368;6.788;2023-05-23T23:54:52;11.13;;;2.22;;
11931;SDS011;6025;51.368;6.788;2023-05-23T23:59:43;11.55;;;2.90;;
